createdAt,value
2022-12-28T00:01:27.457Z,99.9
2022-12-28T00:06:29.743Z,99.9
2022-12-28T00:11:33.826Z,99.9
2022-12-28T00:16:36.745Z,99.9
2022-12-28T00:21:38.886Z,99.9
2022-12-28T00:26:40.937Z,99.9
2022-12-28T00:31:43.447Z,99.9
2022-12-28T00:37:15.363Z,99.9
2022-12-28T00:41:48.068Z,99.9
2022-12-28T00:46:50.653Z,99.9
2022-12-28T00:51:52.798Z,99.9
2022-12-28T00:56:56.043Z,99.9
2022-12-28T01:01:59.087Z,99.9
2022-12-28T01:07:01.237Z,99.9
2022-12-28T01:12:03.321Z,99.9
2022-12-28T01:17:06.933Z,99.9
2022-12-28T01:22:09.020Z,99.9
2022-12-28T01:27:11.093Z,99.9
2022-12-28T01:37:13.771Z,99.9
2022-12-28T01:42:15.807Z,99.9
2022-12-28T01:47:19.451Z,99.9
2022-12-28T01:52:21.913Z,99.9
2022-12-28T01:57:23.970Z,99.9
2022-12-28T02:02:27.087Z,99.9
2022-12-28T02:07:29.189Z,99.9
2022-12-28T02:12:32.312Z,99.9
2022-12-28T02:17:36.396Z,99.9
2022-12-28T02:22:38.742Z,99.9
2022-12-28T02:27:40.850Z,99.9
2022-12-28T02:32:43.262Z,99.9
2022-12-28T02:37:45.608Z,99.9
2022-12-28T02:42:47.680Z,99.9
2022-12-28T02:47:49.882Z,99.9
2022-12-28T02:52:51.967Z,99.9
2022-12-28T02:57:54.037Z,99.9
2022-12-28T03:02:56.683Z,99.9
2022-12-28T03:07:58.738Z,99.9
2022-12-28T03:13:00.872Z,99.9
2022-12-28T03:18:03.097Z,99.9
2022-12-28T03:23:05.103Z,99.9
2022-12-28T03:28:07.113Z,99.9
2022-12-28T03:34:11.338Z,99.9
2022-12-28T03:39:13.409Z,99.9
2022-12-28T03:44:18.120Z,99.9
2022-12-28T03:49:20.414Z,99.9
2022-12-28T03:54:22.404Z,99.9
2022-12-28T03:59:24.500Z,99.9
2022-12-28T04:04:26.638Z,99.9
2022-12-28T04:09:28.637Z,99.9
2022-12-28T04:14:30.692Z,99.9
2022-12-28T04:19:32.839Z,99.9
2022-12-28T04:24:35.896Z,99.9
2022-12-28T04:29:37.933Z,99.9
2022-12-28T04:34:50.925Z,99.9
2022-12-28T04:39:59.451Z,99.9
2022-12-28T04:44:51.417Z,99.9
2022-12-28T04:49:54.184Z,99.9
2022-12-28T04:54:56.198Z,99.9
2022-12-28T04:59:58.243Z,99.9
2022-12-28T05:05:02.128Z,99.9
2022-12-28T05:10:04.581Z,99.9
2022-12-28T05:16:18.810Z,99.9
2022-12-28T05:21:20.949Z,99.9
2022-12-28T05:26:23.009Z,99.9
2022-12-28T05:31:25.594Z,99.9
2022-12-28T05:36:32.349Z,99.9
2022-12-28T05:41:34.374Z,99.9
2022-12-28T05:46:36.681Z,99.9
2022-12-28T05:51:42.131Z,99.9
2022-12-28T05:56:44.218Z,99.9
2022-12-28T06:01:47.108Z,99.9
2022-12-28T06:06:50.292Z,99.9
2022-12-28T06:11:52.753Z,99.9
2022-12-28T06:16:54.971Z,99.9
2022-12-28T06:21:57.009Z,99.9
2022-12-28T06:27:00.062Z,99.9
2022-12-28T06:32:02.709Z,99.9
2022-12-28T06:37:04.733Z,99.9
2022-12-28T06:42:06.756Z,99.9
2022-12-28T06:47:08.827Z,99.9
2022-12-28T06:52:11.125Z,99.9
2022-12-28T06:57:13.901Z,99.9
2022-12-28T07:02:17.292Z,99.9
2022-12-28T07:07:19.531Z,99.9
2022-12-28T07:12:21.618Z,99.9
2022-12-28T07:17:26.048Z,99.9
2022-12-28T07:22:28.065Z,99.9
2022-12-28T07:27:30.191Z,99.9
2022-12-28T07:32:32.448Z,99.9
2022-12-28T07:37:34.616Z,99.9
2022-12-28T07:42:36.759Z,99.9
2022-12-28T07:47:38.742Z,99.9
2022-12-28T07:52:41.618Z,99.4
2022-12-28T07:57:43.630Z,99.4
2022-12-28T08:02:45.672Z,98.1
2022-12-28T08:07:48.957Z,96.5
2022-12-28T08:12:51.031Z,96.6
2022-12-28T08:17:53.419Z,97.5
2022-12-28T08:22:55.746Z,99.1
2022-12-28T08:27:59.047Z,98.2
2022-12-28T08:33:01.074Z,98.1
2022-12-28T08:38:03.778Z,98
2022-12-28T08:43:05.743Z,98.1
2022-12-28T08:48:07.668Z,97.2
2022-12-28T08:53:09.983Z,98.1
2022-12-28T08:58:11.950Z,93.4
2022-12-28T09:03:15.064Z,92.4
2022-12-28T09:08:17.265Z,92.4
2022-12-28T09:13:19.372Z,91.9
2022-12-28T09:18:21.415Z,92.5
2022-12-28T09:23:23.426Z,90.7
2022-12-28T09:28:25.439Z,84.8
2022-12-28T09:33:28.596Z,87.1
2022-12-28T09:38:32.008Z,87.8
2022-12-28T09:43:33.950Z,87.5
2022-12-28T09:48:36.618Z,88.4
2022-12-28T09:53:38.924Z,88.3
2022-12-28T09:58:49.002Z,88.6
2022-12-28T10:03:41.182Z,88.7
2022-12-28T10:08:43.458Z,84
2022-12-28T10:13:58.400Z,85.4
2022-12-28T10:18:50.599Z,85.1
2022-12-28T10:24:34.380Z,90.5
2022-12-28T10:28:56.338Z,91.2
2022-12-28T10:33:58.384Z,92.1
2022-12-28T10:39:00.609Z,90.8
2022-12-28T10:44:43.667Z,88.9
2022-12-28T10:49:13.839Z,88
2022-12-28T10:54:08.526Z,88.2
2022-12-28T10:59:10.677Z,88.1
2022-12-28T11:04:14.202Z,87.5
2022-12-28T11:09:16.688Z,87.5
2022-12-28T11:14:19.454Z,94.4
2022-12-28T11:19:21.573Z,94.4
2022-12-28T11:24:23.798Z,95.9
2022-12-28T11:29:26.627Z,97.9
2022-12-28T11:34:29.352Z,98.1
2022-12-28T11:39:31.635Z,98
2022-12-28T11:44:34.492Z,98.2
2022-12-28T11:49:36.489Z,97.9
2022-12-28T11:54:39.527Z,93.8
2022-12-28T11:59:41.761Z,94
2022-12-28T12:04:45.079Z,91.9
2022-12-28T12:09:47.175Z,91.9
2022-12-28T12:14:49.211Z,90.5
2022-12-28T12:19:51.313Z,92.3
2022-12-28T12:24:53.563Z,95.5
2022-12-28T12:29:56.223Z,90.3
2022-12-28T12:34:58.355Z,90.4
2022-12-28T12:40:00.799Z,89.1
2022-12-28T12:45:04.673Z,90.6
2022-12-28T12:50:06.935Z,90.5
2022-12-28T12:55:08.939Z,90.3
2022-12-28T13:00:11.008Z,90.4
2022-12-28T13:05:13.268Z,88.4
2022-12-28T13:10:15.681Z,90.8
2022-12-28T13:15:17.712Z,95
2022-12-28T13:20:19.992Z,97.5
2022-12-28T13:25:22.089Z,99.1
2022-12-28T13:30:24.158Z,99.9
2022-12-28T13:35:26.657Z,99.9
2022-12-28T13:40:28.712Z,99.9
2022-12-28T13:45:31.075Z,99.9
2022-12-28T13:50:33.075Z,99.9
2022-12-28T13:55:35.421Z,99.9
2022-12-28T14:00:37.533Z,99.9
2022-12-28T14:05:39.743Z,99.9
2022-12-28T14:10:41.801Z,99.9
2022-12-28T14:15:45.866Z,99.9
2022-12-28T14:20:48.538Z,99.9
2022-12-28T14:25:50.680Z,99.9
2022-12-28T14:30:53.076Z,99.9
2022-12-28T14:35:55.430Z,99.9
2022-12-28T14:40:57.611Z,99.9
2022-12-28T15:12:18.713Z,99.9
2022-12-28T15:17:21.184Z,99.9
2022-12-28T15:22:23.344Z,99.9
2022-12-28T15:27:25.459Z,99.9
2022-12-28T15:32:27.639Z,99.9
2022-12-28T15:37:29.936Z,99.9
2022-12-28T15:42:42.278Z,99.9
2022-12-28T15:47:34.316Z,99.9
2022-12-28T15:52:36.465Z,99.9
2022-12-28T15:57:38.563Z,99.9
2022-12-28T16:02:42.017Z,99.9
2022-12-28T16:07:44.400Z,99.9
2022-12-28T16:12:47.087Z,99.9
2022-12-28T16:17:59.717Z,99.9
2022-12-28T16:22:51.944Z,99.9
2022-12-28T16:27:54.065Z,99.9
2022-12-28T16:32:56.196Z,99.9
2022-12-28T16:37:58.813Z,99.9
2022-12-28T16:43:01.058Z,99.9
2022-12-28T16:48:03.213Z,99.9
2022-12-28T16:53:05.395Z,99.9
2022-12-28T16:58:07.543Z,99.9
2022-12-28T17:03:10.217Z,99.9
2022-12-28T17:08:12.308Z,99.9
2022-12-28T17:13:14.566Z,99.9
2022-12-28T17:18:16.679Z,99.9
2022-12-28T17:23:18.915Z,99.9
2022-12-28T17:28:21.094Z,99.9
2022-12-28T17:33:23.191Z,99.9
2022-12-28T17:38:25.395Z,99.9
2022-12-28T17:43:27.671Z,99.9
2022-12-28T17:48:29.719Z,99.9
2022-12-28T17:53:31.703Z,99.9
2022-12-28T17:58:33.763Z,99.9
2022-12-28T18:03:37.087Z,99.9
2022-12-28T18:08:39.276Z,99.9
2022-12-28T18:13:41.355Z,99.9
2022-12-28T18:18:43.546Z,99.9
2022-12-28T18:23:48.654Z,99.9
2022-12-28T18:28:50.798Z,99.9
2022-12-28T18:33:53.095Z,99.9
2022-12-28T18:38:55.731Z,99.9
2022-12-28T18:43:58.103Z,99.9
2022-12-28T18:49:00.345Z,99.9
2022-12-28T18:54:02.618Z,99.9
2022-12-28T18:59:04.745Z,99.9
2022-12-28T19:04:08.310Z,99.9
2022-12-28T19:14:10.978Z,99.9
2022-12-28T19:19:13.051Z,99.9
2022-12-28T19:24:15.496Z,99.9
2022-12-28T19:29:17.693Z,99.9
2022-12-28T19:34:19.704Z,99.9
2022-12-28T19:39:21.950Z,99.9
2022-12-28T19:44:24.326Z,99.9
2022-12-28T19:49:28.583Z,99.9
2022-12-28T19:54:30.604Z,99.9
2022-12-28T19:59:32.615Z,99.9
2022-12-28T20:04:36.396Z,99.9
2022-12-28T20:09:38.439Z,99.9
2022-12-28T20:14:40.579Z,99.9
2022-12-28T20:19:43.302Z,99.9
2022-12-28T20:24:45.449Z,99.9
2022-12-28T20:29:47.598Z,99.9
2022-12-28T20:34:49.617Z,99.9
2022-12-28T20:39:51.874Z,99.9
2022-12-28T20:44:53.981Z,99.9
2022-12-28T20:49:56.092Z,99.9
2022-12-28T20:54:58.174Z,99.9
2022-12-28T21:00:00.312Z,99.9
2022-12-28T21:05:02.743Z,99.9
2022-12-28T21:10:05.048Z,99.9
2022-12-28T21:15:07.150Z,99.9
2022-12-28T21:20:09.336Z,99.9
2022-12-28T21:25:11.506Z,99.9
2022-12-28T21:30:13.856Z,99.9
2022-12-28T21:35:15.992Z,99.9
2022-12-28T21:40:18.172Z,99.9
2022-12-28T21:45:20.889Z,99.9
2022-12-28T21:50:22.973Z,99.9
2022-12-28T21:55:25.215Z,99.9
2022-12-28T22:00:27.462Z,99.9
2022-12-28T22:05:29.579Z,99.9
2022-12-28T22:10:31.672Z,99.9
2022-12-28T22:15:34.435Z,99.9
2022-12-28T22:20:36.471Z,99.9
2022-12-28T22:25:38.546Z,99.9
2022-12-28T22:30:40.619Z,99.9
2022-12-28T22:35:42.671Z,99.9
2022-12-28T22:40:45.074Z,99.9
2022-12-28T22:45:47.553Z,99.9
2022-12-28T22:50:49.611Z,99.9
2022-12-28T22:55:51.655Z,99.9
2022-12-28T23:00:53.879Z,99.9
2022-12-28T23:05:56.376Z,99.9
2022-12-28T23:10:58.545Z,99.9
2022-12-28T23:16:00.557Z,99.9
2022-12-28T23:21:03.006Z,99.9
2022-12-28T23:26:05.356Z,99.9
2022-12-28T23:31:08.068Z,99.9
2022-12-28T23:36:10.403Z,99.9
2022-12-28T23:41:12.531Z,99.9
2022-12-28T23:46:14.959Z,99.9
2022-12-28T23:51:17.024Z,99.9
2022-12-28T23:56:19.160Z,99.9
